Time;durP1;ratioP1;P1;durP2;ratioP2;P2;SDS_P1;SDS_P2;PMS_P1;PMS_P2;Temp;Humidity;BMP_temperature;BMP_pressure;BME280_temperature;BME280_humidity;BME280_pressure;Samples;Min_cycle;Max_cycle;Signal;HPM_P1;HPM_P2
2023/08/31 00:02:33;;;;;;;20.25;13.38;;;;;;;12.72;100.00;99809.50;5037672;28;20899;-84
2023/08/31 00:05:02;;;;;;;21.38;14.65;;;;;;;12.69;100.00;99813.66;5023285;28;20431;-84
2023/08/31 00:07:30;;;;;;;22.55;14.63;;;;;;;12.75;100.00;99806.94;5027594;28;20438;-84
2023/08/31 00:09:59;;;;;;;21.73;14.70;;;;;;;12.58;100.00;99807.69;5027693;28;20453;-84
2023/08/31 00:12:27;;;;;;;21.80;14.80;;;;;;;12.59;100.00;99805.75;5024929;28;20431;-85
2023/08/31 00:14:57;;;;;;;25.60;15.25;;;;;;;12.67;100.00;99804.97;5026072;28;20427;-85
2023/08/31 00:17:25;;;;;;;24.52;15.10;;;;;;;12.72;100.00;99795.88;5023412;28;20434;-85
2023/08/31 00:19:58;;;;;;;24.77;16.35;;;;;;;12.64;100.00;99794.69;5041741;28;20423;-85
2023/08/31 00:22:31;;;;;;;23.52;14.82;;;;;;;12.61;100.00;99786.31;5026846;28;20436;-84
2023/08/31 00:25:01;;;;;;;26.63;15.68;;;;;;;12.51;100.00;99788.22;5023755;28;20446;-85
2023/08/31 00:27:34;;;;;;;26.77;15.40;;;;;;;12.51;100.00;99787.41;5024559;28;21472;-85
2023/08/31 00:30:07;;;;;;;26.08;16.17;;;;;;;12.50;100.00;99794.81;5031503;28;20418;-86
2023/08/31 00:32:35;;;;;;;23.55;15.20;;;;;;;12.46;100.00;99795.75;5030940;28;20415;-85
2023/08/31 00:35:09;;;;;;;26.30;15.80;;;;;;;12.50;100.00;99802.19;5040406;28;20516;-85
2023/08/31 00:37:38;;;;;;;25.55;16.13;;;;;;;12.55;100.00;99808.31;5026660;28;20433;-86
2023/08/31 00:40:09;;;;;;;27.07;15.50;;;;;;;12.53;100.00;99809.75;5039277;28;20780;-86
2023/08/31 00:42:42;;;;;;;24.48;14.98;;;;;;;12.53;100.00;99816.00;5025977;28;20438;-85
2023/08/31 00:45:16;;;;;;;25.20;15.80;;;;;;;12.57;100.00;99822.44;5025439;28;20443;-85
2023/08/31 00:47:50;;;;;;;23.90;14.82;;;;;;;12.52;100.00;99817.13;5025148;28;20435;-85
2023/08/31 00:50:23;;;;;;;24.40;15.65;;;;;;;12.44;100.00;99808.91;5041570;28;20427;-86
2023/08/31 00:52:52;;;;;;;24.50;14.60;;;;;;;12.50;100.00;99815.84;5025085;28;20430;-85
2023/08/31 00:55:21;;;;;;;24.70;14.88;;;;;;;12.63;100.00;99822.31;5024868;28;21001;-86
2023/08/31 00:57:55;;;;;;;23.17;14.70;;;;;;;12.48;100.00;99827.03;5025231;28;20435;-85
2023/08/31 01:00:38;;;;;;;23.23;15.07;;;;;;;12.48;100.00;99818.84;5027313;28;20426;-85
2023/08/31 01:03:15;;;;;;;22.38;14.13;;;;;;;12.52;100.00;99829.97;5025825;28;20431;-84
2023/08/31 01:05:57;;;;;;;23.88;14.27;;;;;;;12.42;100.00;99829.09;5027969;28;21093;-85
2023/08/31 01:08:37;;;;;;;22.95;13.90;;;;;;;12.50;100.00;99824.81;5026878;28;20422;-86
2023/08/31 01:11:22;;;;;;;23.13;14.07;;;;;;;12.40;100.00;99830.53;5040412;28;20431;-86
2023/08/31 01:13:58;;;;;;;22.77;14.40;;;;;;;12.43;100.00;99835.38;5041967;28;20435;-86
2023/08/31 01:16:27;;;;;;;22.67;13.87;;;;;;;12.35;100.00;99833.41;5041388;28;20423;-85
2023/08/31 01:19:02;;;;;;;25.20;14.48;;;;;;;12.36;100.00;99829.53;5036716;28;20438;-85
2023/08/31 01:21:35;;;;;;;23.95;14.20;;;;;;;12.34;100.00;99829.88;5024524;28;20423;-85
2023/08/31 01:24:07;;;;;;;24.80;13.90;;;;;;;12.29;100.00;99832.75;5026731;28;20430;-86
2023/08/31 01:26:42;;;;;;;23.20;13.52;;;;;;;12.31;100.00;99832.44;5027189;28;20805;-86
2023/08/31 01:29:11;;;;;;;22.38;13.32;;;;;;;12.37;100.00;99836.63;5029779;28;20418;-85
2023/08/31 01:31:45;;;;;;;22.00;13.05;;;;;;;12.30;100.00;99836.25;5025035;28;20435;-86
2023/08/31 01:34:14;;;;;;;22.85;13.15;;;;;;;12.38;100.00;99840.97;5018987;28;21050;-84
2023/08/31 01:36:51;;;;;;;28.90;14.43;;;;;;;12.32;100.00;99840.28;5028011;28;20415;-85
2023/08/31 01:39:27;;;;;;;23.20;13.52;;;;;;;12.26;100.00;99838.81;5024883;28;21006;-85
2023/08/31 01:42:04;;;;;;;24.52;13.88;;;;;;;12.33;100.00;99836.47;5024168;28;20435;-85
2023/08/31 01:44:38;;;;;;;24.87;13.60;;;;;;;12.34;100.00;99838.03;5027142;28;20415;-86
2023/08/31 01:47:13;;;;;;;23.40;13.38;;;;;;;12.36;100.00;99838.56;5025986;28;20433;-85
2023/08/31 01:49:46;;;;;;;22.38;12.80;;;;;;;12.39;100.00;99842.59;5027027;28;20434;-84
2023/08/31 01:52:20;;;;;;;22.92;12.82;;;;;;;12.33;100.00;99852.84;5023430;28;20437;-85
2023/08/31 01:54:54;;;;;;;23.85;13.63;;;;;;;12.34;100.00;99845.44;5023221;28;20426;-85
2023/08/31 01:57:28;;;;;;;26.35;14.35;;;;;;;12.21;100.00;99850.66;5025508;28;20435;-84
2023/08/31 02:00:22;;;;;;;24.23;13.73;;;;;;;12.23;100.00;99842.16;5025451;28;20442;-85
2023/08/31 02:02:57;;;;;;;24.40;14.93;;;;;;;12.11;100.00;99855.56;5035999;28;20428;-84
2023/08/31 02:05:30;;;;;;;26.58;14.52;;;;;;;12.21;100.00;99855.31;5024963;28;20431;-86
2023/08/31 02:08:03;;;;;;;22.88;14.50;;;;;;;12.21;100.00;99844.41;5022736;28;20446;-85
2023/08/31 02:10:38;;;;;;;23.60;14.20;;;;;;;12.26;100.00;99857.91;5024842;28;20433;-85
2023/08/31 02:13:11;;;;;;;22.73;14.45;;;;;;;12.21;100.00;99860.78;5021484;28;21153;-85
2023/08/31 02:15:45;;;;;;;23.83;14.80;;;;;;;12.14;100.00;99857.66;5022906;28;20687;-86
2023/08/31 02:18:13;;;;;;;24.17;15.02;;;;;;;12.19;100.00;99865.72;5027953;28;20437;-86
2023/08/31 02:20:46;;;;;;;27.02;14.15;;;;;;;12.09;100.00;99861.31;5024291;28;20442;-86
2023/08/31 02:23:15;;;;;;;23.08;14.75;;;;;;;12.08;100.00;99868.72;5026422;28;20442;-87
2023/08/31 02:25:49;;;;;;;27.33;14.88;;;;;;;12.06;100.00;99862.75;5026801;28;20435;-86
2023/08/31 02:28:22;;;;;;;24.70;13.82;;;;;;;12.04;100.00;99866.91;5024617;28;20434;-86
2023/08/31 02:31:00;;;;;;;21.10;12.98;;;;;;;12.01;100.00;99870.25;5025158;28;20649;-84
2023/08/31 02:33:33;;;;;;;21.30;13.15;;;;;;;12.00;100.00;99868.63;5023313;28;20439;-86
2023/08/31 02:36:01;;;;;;;22.58;13.73;;;;;;;12.05;100.00;99861.13;5023394;28;20418;-85
2023/08/31 02:38:35;;;;;;;21.33;13.20;;;;;;;12.01;100.00;99864.78;5024731;28;20422;-86
2023/08/31 02:41:05;;;;;;;21.97;12.90;;;;;;;12.02;100.00;99874.59;5022263;28;20441;-85
2023/08/31 02:43:33;;;;;;;20.50;13.18;;;;;;;11.98;100.00;99865.41;5023130;28;20438;-85
2023/08/31 02:46:06;;;;;;;20.27;12.57;;;;;;;11.96;100.00;99864.91;5027876;28;20460;-86
2023/08/31 02:48:39;;;;;;;22.00;12.88;;;;;;;11.99;100.00;99862.38;5026186;28;20430;-86
2023/08/31 02:51:12;;;;;;;20.95;12.85;;;;;;;11.98;100.00;99860.75;5024698;28;20423;-86
2023/08/31 02:53:45;;;;;;;22.40;13.75;;;;;;;11.89;100.00;99865.28;5025703;28;20431;-85
2023/08/31 02:56:15;;;;;;;24.17;13.23;;;;;;;11.88;100.00;99871.88;5023554;28;20435;-85
2023/08/31 02:58:48;;;;;;;21.08;13.02;;;;;;;11.89;100.00;99862.56;5024189;28;20418;-85
2023/08/31 03:01:24;;;;;;;21.85;13.80;;;;;;;11.84;100.00;99868.97;5026868;28;20418;-86
2023/08/31 03:03:53;;;;;;;23.38;13.68;;;;;;;11.82;100.00;99873.09;5025084;28;20423;-86
2023/08/31 03:06:26;;;;;;;23.67;13.52;;;;;;;11.84;100.00;99874.41;5023129;28;20431;-84
2023/08/31 03:09:02;;;;;;;22.27;13.67;;;;;;;11.71;100.00;99876.06;5023182;28;20463;-86
2023/08/31 03:11:32;;;;;;;23.10;14.30;;;;;;;11.82;100.00;99879.38;5022526;28;20423;-85
2023/08/31 03:14:05;;;;;;;23.75;13.88;;;;;;;11.71;100.00;99875.25;5020612;28;20516;-84
2023/08/31 03:16:39;;;;;;;25.30;13.68;;;;;;;11.76;100.00;99877.06;5025587;28;20469;-86
2023/08/31 03:19:07;;;;;;;26.33;13.40;;;;;;;11.70;100.00;99882.63;5026115;28;22472;-85
2023/08/31 03:21:47;;;;;;;23.58;14.50;;;;;;;11.68;100.00;99875.88;5024996;28;20431;-84
2023/08/31 03:24:23;;;;;;;25.17;14.60;;;;;;;11.65;100.00;99888.19;5023146;28;20427;-84
2023/08/31 03:26:52;;;;;;;24.92;13.98;;;;;;;11.68;100.00;99884.88;5028145;28;20411;-85
2023/08/31 03:29:28;;;;;;;23.30;14.52;;;;;;;11.72;100.00;99885.03;5023501;28;20430;-84
2023/08/31 03:31:56;;;;;;;24.20;13.43;;;;;;;11.68;100.00;99884.88;5025740;28;20426;-84
2023/08/31 03:34:29;;;;;;;23.00;13.50;;;;;;;11.67;100.00;99885.16;5042154;28;20439;-85
2023/08/31 03:37:02;;;;;;;23.13;13.50;;;;;;;11.58;100.00;99888.59;5022278;28;21154;-83
2023/08/31 03:39:36;;;;;;;21.30;13.52;;;;;;;11.51;100.00;99882.78;5024316;28;20426;-85
2023/08/31 03:42:06;;;;;;;20.58;12.50;;;;;;;11.59;100.00;99886.69;5023251;28;20435;-85
2023/08/31 03:44:40;;;;;;;22.25;12.50;;;;;;;11.57;100.00;99884.28;5043489;28;20423;-85
2023/08/31 03:47:08;;;;;;;22.07;12.40;;;;;;;11.52;100.00;99895.28;5041639;28;20443;-85
2023/08/31 03:49:41;;;;;;;19.85;12.57;;;;;;;11.38;100.00;99895.31;5023702;28;20446;-85
2023/08/31 03:52:16;;;;;;;20.40;12.35;;;;;;;11.37;100.00;99899.13;5023548;28;20430;-85
2023/08/31 03:54:44;;;;;;;18.92;11.77;;;;;;;11.28;100.00;99902.88;5022711;28;20969;-83
2023/08/31 03:57:20;;;;;;;21.80;12.05;;;;;;;11.28;100.00;99897.44;5026871;28;20435;-85
2023/08/31 03:59:56;;;;;;;19.60;12.20;;;;;;;11.25;100.00;99898.03;5025210;28;20951;-83
2023/08/31 04:02:31;;;;;;;19.17;11.98;;;;;;;11.19;100.00;99895.41;5020234;28;20434;-84
2023/08/31 04:05:05;;;;;;;19.13;11.50;;;;;;;11.19;100.00;99884.53;5022639;28;20993;-85
2023/08/31 04:07:35;;;;;;;18.52;11.38;;;;;;;11.18;100.00;99901.97;5025536;28;21148;-85
2023/08/31 04:10:09;;;;;;;17.23;11.30;;;;;;;11.11;100.00;99898.84;5025521;28;20427;-84
2023/08/31 04:12:39;;;;;;;16.52;11.23;;;;;;;10.96;100.00;99907.31;5024687;28;20440;-83
2023/08/31 04:15:09;;;;;;;17.15;11.55;;;;;;;10.94;100.00;99901.34;5039971;28;20439;-84
2023/08/31 04:17:42;;;;;;;20.73;11.07;;;;;;;10.88;100.00;99903.38;5025173;28;20961;-83
2023/08/31 04:20:12;;;;;;;18.20;11.27;;;;;;;10.88;100.00;99904.19;5038351;28;20435;-84
2023/08/31 04:22:40;;;;;;;18.02;11.30;;;;;;;10.77;100.00;99900.06;5025328;28;20426;-85
2023/08/31 04:25:08;;;;;;;19.33;10.60;;;;;;;10.80;100.00;99899.44;5027672;28;20974;-85
2023/08/31 04:27:39;;;;;;;19.08;11.23;;;;;;;10.77;100.00;99902.78;5022075;28;20883;-85
2023/08/31 04:30:09;;;;;;;18.38;10.10;;;;;;;10.74;100.00;99908.78;5023113;28;20431;-85
2023/08/31 04:32:37;;;;;;;17.80;10.77;;;;;;;10.65;100.00;99911.41;5022385;28;20435;-84
2023/08/31 04:35:10;;;;;;;20.52;11.35;;;;;;;10.64;100.00;99907.06;5024995;28;20442;-85
2023/08/31 04:37:44;;;;;;;20.35;11.23;;;;;;;10.60;100.00;99921.56;5023967;28;20439;-84
2023/08/31 04:40:18;;;;;;;18.92;11.32;;;;;;;10.60;100.00;99922.38;5040883;28;20623;-84
2023/08/31 04:42:46;;;;;;;17.48;10.32;;;;;;;10.56;100.00;99924.06;5024972;28;20438;-84
2023/08/31 04:45:16;;;;;;;17.77;10.73;;;;;;;10.54;100.00;99926.28;5042787;28;20438;-85
2023/08/31 04:47:50;;;;;;;16.07;10.57;;;;;;;10.51;100.00;99924.19;5024668;28;21123;-84
2023/08/31 04:50:23;;;;;;;15.50;10.38;;;;;;;10.52;100.00;99923.88;5024859;28;20442;-85
2023/08/31 04:52:56;;;;;;;17.77;11.07;;;;;;;10.43;100.00;99928.38;5025703;28;20426;-84
2023/08/31 04:55:25;;;;;;;16.25;10.30;;;;;;;10.54;100.00;99927.09;5024430;28;20430;-85
2023/08/31 04:57:58;;;;;;;15.80;10.40;;;;;;;10.53;100.00;99935.56;5040335;28;20854;-85
2023/08/31 05:00:27;;;;;;;21.55;10.48;;;;;;;10.44;100.00;99938.16;5040396;28;20426;-85
2023/08/31 05:02:56;;;;;;;15.35;9.77;;;;;;;10.50;100.00;99936.94;5014257;28;20457;-85
2023/08/31 05:05:29;;;;;;;18.60;9.38;;;;;;;10.42;100.00;99945.78;5024993;28;20437;-84
2023/08/31 05:07:58;;;;;;;14.70;8.98;;;;;;;10.44;100.00;99953.66;5041102;28;20430;-85
2023/08/31 05:10:31;;;;;;;13.88;8.73;;;;;;;10.67;100.00;99958.16;5026022;28;20427;-84
2023/08/31 05:13:05;;;;;;;14.52;8.60;;;;;;;10.83;100.00;99952.47;5025270;28;20509;-84
2023/08/31 05:15:35;;;;;;;16.00;7.88;;;;;;;11.04;100.00;99959.16;5025397;28;20433;-84
2023/08/31 05:18:04;;;;;;;14.27;7.67;;;;;;;10.97;100.00;99966.09;5026730;28;20438;-85
2023/08/31 05:20:37;;;;;;;12.55;6.47;;;;;;;10.88;100.00;99972.25;5026044;28;20431;-85
2023/08/31 05:23:10;;;;;;;10.77;6.30;;;;;;;10.84;100.00;99978.56;5026175;28;20429;-84
2023/08/31 05:25:44;;;;;;;12.02;6.00;;;;;;;10.82;100.00;99983.50;5023509;28;20430;-83
2023/08/31 05:28:12;;;;;;;12.13;6.00;;;;;;;10.88;100.00;99976.88;5021920;28;20442;-84
2023/08/31 05:30:50;;;;;;;12.57;6.00;;;;;;;10.89;100.00;99973.03;5024851;28;20435;-85
2023/08/31 05:33:25;;;;;;;11.90;5.95;;;;;;;10.93;100.00;99984.16;5020597;28;20427;-83
2023/08/31 05:35:58;;;;;;;13.45;6.05;;;;;;;10.97;100.00;99985.16;5021926;28;20427;-86
2023/08/31 05:38:26;;;;;;;12.40;6.07;;;;;;;11.00;100.00;99987.28;5022674;28;20438;-85
2023/08/31 05:41:07;;;;;;;13.35;6.43;;;;;;;11.13;100.00;99982.97;5021794;28;20430;-85
2023/08/31 05:43:35;;;;;;;11.97;6.63;;;;;;;11.12;100.00;99995.78;5037243;28;20512;-84
2023/08/31 05:46:05;;;;;;;13.95;6.60;;;;;;;11.17;100.00;99990.25;5023454;28;20788;-85
2023/08/31 05:48:33;;;;;;;15.25;7.03;;;;;;;11.12;100.00;99984.88;5039413;28;20429;-85
2023/08/31 05:51:01;;;;;;;12.30;6.88;;;;;;;11.29;100.00;99994.38;5037327;28;20458;-84
2023/08/31 05:53:35;;;;;;;14.00;7.20;;;;;;;11.16;100.00;99994.06;5040090;28;20438;-85
2023/08/31 05:56:07;;;;;;;14.80;6.90;;;;;;;11.15;100.00;99987.00;5036192;28;20433;-85
2023/08/31 05:58:36;;;;;;;13.63;7.17;;;;;;;11.23;100.00;99990.97;5025711;28;20456;-83
2023/08/31 06:01:07;;;;;;;13.02;6.90;;;;;;;11.31;100.00;99994.88;5037780;28;20803;-84
2023/08/31 06:03:40;;;;;;;12.83;6.50;;;;;;;11.48;100.00;99997.03;5024568;28;20537;-84
2023/08/31 06:06:13;;;;;;;11.90;6.57;;;;;;;11.56;100.00;99997.13;5035777;28;20462;-84
2023/08/31 06:08:46;;;;;;;11.98;6.53;;;;;;;11.47;100.00;100004.38;5023361;28;20424;-84
2023/08/31 06:11:15;;;;;;;14.38;6.25;;;;;;;11.54;100.00;100002.03;5022711;28;20442;-83
2023/08/31 06:13:43;;;;;;;13.77;6.30;;;;;;;11.47;100.00;100007.09;5023714;28;20427;-85
2023/08/31 06:16:18;;;;;;;14.63;6.10;;;;;;;11.49;100.00;100004.91;5025246;28;20461;-83
2023/08/31 06:18:46;;;;;;;11.35;5.50;;;;;;;11.57;100.00;100004.19;5023666;28;20429;-84
2023/08/31 06:21:14;;;;;;;12.73;5.72;;;;;;;11.60;100.00;99991.88;5035223;28;20433;-83
2023/08/31 06:23:47;;;;;;;10.77;5.40;;;;;;;11.59;100.00;99998.44;5037632;28;20443;-84
2023/08/31 06:26:15;;;;;;;11.13;5.40;;;;;;;11.73;100.00;100004.66;5023392;28;20431;-85
2023/08/31 06:28:50;;;;;;;14.15;5.82;;;;;;;11.71;100.00;100003.34;5037777;28;20442;-84
2023/08/31 06:31:25;;;;;;;11.52;5.93;;;;;;;11.73;100.00;100012.84;5023201;28;20434;-84
2023/08/31 06:33:58;;;;;;;12.52;5.18;;;;;;;11.67;100.00;100005.06;5027063;28;20423;-84
2023/08/31 06:36:26;;;;;;;11.63;5.68;;;;;;;11.86;100.00;100013.13;5024189;28;20925;-84
2023/08/31 06:38:59;;;;;;;11.20;5.50;;;;;;;11.90;100.00;100008.69;5027557;28;20428;-85
2023/08/31 06:41:27;;;;;;;11.63;5.72;;;;;;;11.98;100.00;100005.28;5023220;28;20435;-84
2023/08/31 06:44:01;;;;;;;12.40;5.68;;;;;;;12.02;100.00;100003.56;5039352;28;20863;-83
2023/08/31 06:46:33;;;;;;;11.63;5.22;;;;;;;12.14;100.00;100011.22;5022688;28;20459;-83
2023/08/31 06:49:06;;;;;;;9.93;4.97;;;;;;;12.20;100.00;100015.44;5021881;28;20431;-85
2023/08/31 06:51:40;;;;;;;11.63;4.97;;;;;;;12.09;100.00;100016.78;5020536;28;20422;-83
2023/08/31 06:54:13;;;;;;;9.73;4.60;;;;;;;12.23;100.00;100017.53;5024208;28;20441;-82
2023/08/31 06:56:46;;;;;;;11.18;4.60;;;;;;;12.17;100.00;100015.25;5024257;28;20429;-85
2023/08/31 06:59:19;;;;;;;10.05;4.15;;;;;;;12.09;100.00;100003.16;5024648;28;20443;-85
2023/08/31 07:01:49;;;;;;;12.18;4.78;;;;;;;12.14;100.00;100005.75;5023361;28;20427;-85
2023/08/31 07:04:18;;;;;;;9.73;4.15;;;;;;;12.33;100.00;100010.25;5023401;28;20453;-84
2023/08/31 07:06:51;;;;;;;12.43;4.45;;;;;;;12.44;100.00;99997.19;5023638;28;20427;-85
2023/08/31 07:09:20;;;;;;;10.18;3.83;;;;;;;12.44;100.00;99999.91;5026757;28;20433;-84
2023/08/31 07:11:48;;;;;;;7.70;3.80;;;;;;;12.51;100.00;100003.00;5023731;28;20431;-85
2023/08/31 07:14:16;;;;;;;8.00;3.80;;;;;;;12.58;100.00;100012.38;5019844;28;20457;-86
2023/08/31 07:16:51;;;;;;;8.73;3.25;;;;;;;12.50;100.00;100018.59;4975110;28;21188;-86
2023/08/31 07:19:19;;;;;;;9.07;3.33;;;;;;;12.54;100.00;100016.84;5014445;28;20429;-83
2023/08/31 07:21:47;;;;;;;9.80;3.38;;;;;;;12.57;100.00;100013.50;5016470;28;21263;-82
2023/08/31 07:24:21;;;;;;;10.80;3.63;;;;;;;12.71;100.00;100021.63;4997208;28;20434;-83
2023/08/31 07:26:49;;;;;;;10.85;3.53;;;;;;;12.80;100.00;100023.63;4996477;28;20431;-82
2023/08/31 07:29:17;;;;;;;10.95;4.07;;;;;;;12.74;100.00;100021.00;5000587;28;20438;-83
2023/08/31 07:31:52;;;;;;;7.85;4.15;;;;;;;12.70;100.00;100020.00;5003838;28;21263;-83
2023/08/31 07:34:20;;;;;;;8.57;3.95;;;;;;;12.82;100.00;100016.72;4999089;28;20942;-82
2023/08/31 07:36:48;;;;;;;9.32;3.83;;;;;;;12.86;100.00;100022.38;4993266;28;21636;-83
2023/08/31 07:39:19;;;;;;;10.70;3.88;;;;;;;12.90;100.00;100013.25;4996068;28;20415;-84
2023/08/31 07:41:47;;;;;;;10.77;3.70;;;;;;;12.79;100.00;100013.81;4997647;28;20426;-82
2023/08/31 07:44:21;;;;;;;9.65;3.65;;;;;;;12.89;100.00;100029.94;4998319;28;20427;-83
2023/08/31 07:46:49;;;;;;;8.27;3.50;;;;;;;12.89;100.00;100021.75;5017830;28;20438;-83
2023/08/31 07:49:24;;;;;;;7.43;3.30;;;;;;;12.87;100.00;100021.25;5004641;28;20993;-84
2023/08/31 07:51:52;;;;;;;10.02;3.50;;;;;;;12.82;100.00;100024.91;5002234;28;20438;-82
2023/08/31 07:54:21;;;;;;;7.22;3.30;;;;;;;12.74;100.00;100026.47;5003985;28;20474;-83
2023/08/31 07:56:54;;;;;;;8.98;3.25;;;;;;;12.75;100.00;100033.53;5004064;28;20907;-83
2023/08/31 07:59:27;;;;;;;7.10;2.90;;;;;;;12.93;100.00;100036.41;5007371;28;20438;-83
2023/08/31 08:01:56;;;;;;;9.10;3.30;;;;;;;12.97;100.00;100034.66;5019439;28;20439;-83
2023/08/31 08:04:31;;;;;;;8.50;3.55;;;;;;;13.24;100.00;100041.91;5007337;28;20505;-86
2023/08/31 08:06:59;;;;;;;7.95;3.20;;;;;;;13.03;100.00;100041.59;5026816;28;21069;-85
2023/08/31 08:09:28;;;;;;;8.32;3.00;;;;;;;13.18;100.00;100045.88;5008361;28;20437;-83
2023/08/31 08:12:01;;;;;;;6.97;2.70;;;;;;;13.27;100.00;100044.00;5003872;28;20431;-83
2023/08/31 08:14:34;;;;;;;7.20;2.72;;;;;;;13.13;100.00;100051.44;5000792;28;20419;-84
2023/08/31 08:17:03;;;;;;;5.17;2.20;;;;;;;13.18;100.00;100047.81;4971927;28;20965;-83
2023/08/31 08:19:37;;;;;;;8.02;2.38;;;;;;;13.31;100.00;100055.09;5015911;28;20439;-84
2023/08/31 08:22:11;;;;;;;8.05;2.40;;;;;;;13.34;100.00;100048.19;5000954;28;20461;-84
2023/08/31 08:24:39;;;;;;;7.63;2.42;;;;;;;13.38;100.00;100050.03;5018158;28;21186;-83
2023/08/31 08:27:14;;;;;;;7.13;2.25;;;;;;;13.52;100.00;100040.91;4996993;28;20435;-83
2023/08/31 08:29:47;;;;;;;6.70;2.17;;;;;;;13.52;100.00;100051.84;5000437;28;21015;-85
2023/08/31 08:32:21;;;;;;;11.82;2.53;;;;;;;13.52;100.00;100051.84;5003754;28;21320;-84
2023/08/31 08:34:51;;;;;;;6.00;2.15;;;;;;;13.55;100.00;100065.69;5008465;28;20446;-85
2023/08/31 08:37:25;;;;;;;7.57;2.08;;;;;;;13.70;100.00;100058.19;5002627;28;20423;-83
2023/08/31 08:39:58;;;;;;;4.30;1.95;;;;;;;13.72;100.00;100061.44;5003966;28;20431;-87
2023/08/31 08:42:32;;;;;;;7.63;2.08;;;;;;;14.00;100.00;100061.97;5004132;28;21383;-85
2023/08/31 08:45:09;;;;;;;7.93;2.13;;;;;;;13.91;100.00;100067.44;5006028;28;20858;-85
2023/08/31 08:47:37;;;;;;;6.43;2.10;;;;;;;14.16;100.00;100056.09;5000973;28;20450;-83
2023/08/31 08:50:08;;;;;;;5.38;2.00;;;;;;;14.06;100.00;100066.19;5005033;28;20454;-84
2023/08/31 08:52:41;;;;;;;5.93;2.05;;;;;;;14.07;100.00;100061.50;5001007;28;20487;-86
2023/08/31 08:55:15;;;;;;;5.22;1.80;;;;;;;13.87;100.00;100062.94;5005369;28;20430;-84
2023/08/31 08:57:43;;;;;;;4.68;1.90;;;;;;;13.68;100.00;100061.25;5006611;28;20442;-84
2023/08/31 09:00:17;;;;;;;5.68;1.80;;;;;;;13.93;100.00;100067.13;5005368;28;20467;-83
2023/08/31 09:02:50;;;;;;;4.72;1.88;;;;;;;14.09;100.00;100067.50;5002861;28;21119;-85
2023/08/31 09:05:25;;;;;;;3.83;1.77;;;;;;;14.24;100.00;100064.28;5014972;28;20412;-84
2023/08/31 09:08:02;;;;;;;5.07;1.90;;;;;;;14.39;100.00;100064.94;5007710;28;20529;-85
2023/08/31 09:10:37;;;;;;;4.13;1.70;;;;;;;14.39;100.00;100062.22;5005551;28;20807;-84
2023/08/31 09:13:08;;;;;;;5.88;1.77;;;;;;;14.19;100.00;100067.19;5002948;28;20461;-85
2023/08/31 09:15:47;;;;;;;4.77;1.50;;;;;;;14.34;100.00;100062.38;5006771;28;20899;-84
2023/08/31 09:18:24;;;;;;;5.20;1.70;;;;;;;14.22;100.00;100063.78;4975457;28;20439;-82
2023/08/31 09:21:00;;;;;;;5.00;1.67;;;;;;;14.21;100.00;100066.84;5020524;28;20427;-84
2023/08/31 09:23:29;;;;;;;6.38;1.60;;;;;;;14.16;100.00;100073.28;5000490;28;20438;-84
2023/08/31 09:25:57;;;;;;;3.95;1.30;;;;;;;13.95;100.00;100065.69;5018364;28;20431;-84
2023/08/31 09:28:31;;;;;;;4.30;1.50;;;;;;;14.02;100.00;100075.38;5006983;28;20422;-83
2023/08/31 09:31:06;;;;;;;5.55;1.40;;;;;;;13.81;100.00;100073.22;5009528;28;20435;-83
2023/08/31 09:33:39;;;;;;;4.15;1.30;;;;;;;13.60;100.00;100071.03;5004871;28;20454;-81
2023/08/31 09:36:16;;;;;;;3.97;1.45;;;;;;;13.48;100.00;100067.25;5005809;28;20430;-83
2023/08/31 09:38:49;;;;;;;3.85;1.40;;;;;;;13.42;100.00;100074.78;5001563;28;20431;-84
2023/08/31 09:41:17;;;;;;;3.77;1.50;;;;;;;13.40;100.00;100077.03;5005960;28;20431;-84
2023/08/31 09:43:45;;;;;;;4.70;1.80;;;;;;;13.72;100.00;100064.16;5003944;28;20461;-83
2023/08/31 09:46:20;;;;;;;5.70;1.70;;;;;;;13.97;100.00;100070.81;5008417;28;20411;-85
2023/08/31 09:48:54;;;;;;;4.30;1.73;;;;;;;14.05;100.00;100075.53;5003395;28;20470;-83
2023/08/31 09:51:30;;;;;;;5.55;2.05;;;;;;;13.98;100.00;100075.19;5008975;28;20433;-83
2023/08/31 09:54:05;;;;;;;6.05;1.80;;;;;;;13.92;100.00;100071.78;5006081;28;20438;-84
2023/08/31 09:56:41;;;;;;;6.20;1.98;;;;;;;13.91;100.00;100080.31;5005283;28;20434;-83
2023/08/31 09:59:16;;;;;;;5.25;1.85;;;;;;;13.92;100.00;100073.69;5005612;28;20442;-84
2023/08/31 10:01:50;;;;;;;5.97;2.05;;;;;;;13.89;100.00;100071.59;5012988;28;20430;-84
2023/08/31 10:04:24;;;;;;;8.50;2.55;;;;;;;14.06;100.00;100070.88;5004015;28;20434;-84
2023/08/31 10:06:53;;;;;;;6.47;2.28;;;;;;;14.03;100.00;100080.53;5022704;28;20427;-84
2023/08/31 10:09:22;;;;;;;6.82;2.80;;;;;;;13.94;100.00;100079.69;5001346;28;21200;-84
2023/08/31 10:11:52;;;;;;;7.07;3.08;;;;;;;13.72;100.00;100075.88;5000458;28;20443;-83
2023/08/31 10:14:22;;;;;;;8.25;3.00;;;;;;;13.82;100.00;100080.28;5007399;28;20430;-82
2023/08/31 10:16:58;;;;;;;8.75;3.30;;;;;;;13.75;100.00;100072.53;4979186;28;20446;-84
2023/08/31 10:19:26;;;;;;;6.50;2.70;;;;;;;13.94;100.00;100074.19;5005263;28;20444;-84
2023/08/31 10:22:03;;;;;;;7.18;2.90;;;;;;;14.25;100.00;100070.56;5007138;28;20426;-83
2023/08/31 10:25:00;;;;;;;6.15;2.50;;;;;;;14.23;100.00;100073.63;5007539;28;20432;-84
2023/08/31 10:27:45;;;;;;;7.53;2.60;;;;;;;14.31;100.00;100071.22;5004986;28;20430;-82
2023/08/31 10:30:36;;;;;;;6.90;2.50;;;;;;;14.45;100.00;100069.16;5008780;28;20422;-82
2023/08/31 10:33:23;;;;;;;7.18;2.42;;;;;;;14.67;100.00;100065.47;5006107;28;20426;-84
2023/08/31 10:35:57;;;;;;;5.67;2.27;;;;;;;14.69;100.00;100068.69;5005120;28;20427;-81
2023/08/31 10:38:33;;;;;;;7.05;2.40;;;;;;;14.52;100.00;100072.22;5006476;28;20431;-82
2023/08/31 10:41:24;;;;;;;6.30;2.30;;;;;;;14.71;100.00;100071.94;5006309;28;21416;-83
2023/08/31 10:43:53;;;;;;;5.03;2.13;;;;;;;14.89;100.00;100061.75;5006507;28;20425;-83
2023/08/31 10:46:29;;;;;;;6.43;1.98;;;;;;;14.82;100.00;100066.09;5003466;28;20931;-82
2023/08/31 10:49:14;;;;;;;4.15;2.13;;;;;;;14.87;100.00;100074.16;5011249;28;20828;-82
2023/08/31 10:51:44;;;;;;;5.22;2.58;;;;;;;15.02;100.00;100076.41;5008381;28;20427;-83
2023/08/31 10:54:24;;;;;;;5.97;2.33;;;;;;;15.04;100.00;100079.66;5013045;28;20519;-83
2023/08/31 10:57:05;;;;;;;5.07;2.60;;;;;;;15.18;100.00;100073.16;5013223;28;20438;-83
2023/08/31 10:59:43;;;;;;;6.47;2.53;;;;;;;15.29;100.00;100074.44;5014438;28;20906;-81
2023/08/31 11:02:37;;;;;;;6.20;2.50;;;;;;;15.43;100.00;100066.81;5001302;28;20427;-82
2023/08/31 11:05:11;;;;;;;8.05;2.40;;;;;;;15.38;100.00;100068.91;5007131;28;20457;-84
2023/08/31 11:07:46;;;;;;;5.28;2.25;;;;;;;15.38;100.00;100055.22;5007119;28;20434;-84
2023/08/31 11:10:19;;;;;;;6.55;2.35;;;;;;;15.28;100.00;100056.38;5015404;28;20815;-83
2023/08/31 11:12:54;;;;;;;5.20;2.40;;;;;;;15.00;100.00;100072.38;5003050;28;20567;-83
2023/08/31 11:15:23;;;;;;;7.35;2.50;;;;;;;14.76;100.00;100081.91;5008750;28;20438;-83
2023/08/31 11:17:57;;;;;;;8.23;2.70;;;;;;;14.41;100.00;100079.94;4979733;28;20438;-85
2023/08/31 11:20:27;;;;;;;5.75;2.50;;;;;;;14.35;100.00;100083.13;5007356;28;20434;-83
2023/08/31 11:23:01;;;;;;;6.97;2.67;;;;;;;14.04;100.00;100078.56;5009355;28;20441;-83
2023/08/31 11:25:32;;;;;;;6.85;2.40;;;;;;;14.04;100.00;100082.09;5009023;28;20426;-83
2023/08/31 11:28:04;;;;;;;6.25;2.20;;;;;;;13.85;100.00;100089.78;5005748;28;20783;-83
2023/08/31 11:30:37;;;;;;;5.63;2.60;;;;;;;13.85;100.00;100085.13;5006341;28;20423;-84
2023/08/31 11:33:07;;;;;;;5.35;2.53;;;;;;;13.86;100.00;100088.66;5004956;28;20445;-83
2023/08/31 11:35:37;;;;;;;8.60;3.08;;;;;;;13.78;100.00;100091.06;5006571;28;20423;-83
2023/08/31 11:38:10;;;;;;;5.53;2.85;;;;;;;13.75;100.00;100079.94;5005880;28;20435;-83